Terminal Aerodrome Forecast
Issued by NWS Duluth, MN

Home | Current Version | Previous Version | Text Only | Print | Product List | Glossary On
Versions: 1 2 3 4 5 6 7 8 9 10 11 12 13 14 15 16 17 18 19 20
340
FTUS43 KDLH 170529
TAFDLH
TAF
KDLH 170529Z 1706/1806 17008KT P6SM BKN150
     FM171100 18006KT 6SM BR FEW005
      TEMPO 1711/1714 4SM BR SCT005
     FM171600 20007KT P6SM SCT150
     FM180300 25011KT P6SM FEW010 SCT150=

USA.gov is the U.S. government's official web portal to all federal, state and local government web resources and services.